createdAt,value
2018-06-21T00:01:54.110Z,99928.67
2018-06-21T00:04:23.891Z,99927.88
2018-06-21T00:06:53.481Z,99922.80
2018-06-21T00:09:23.438Z,99921.98
2018-06-21T00:11:52.935Z,99916.84
2018-06-21T00:14:22.744Z,99918.53
2018-06-21T00:16:52.367Z,99915.27
2018-06-21T00:19:22.061Z,99913.67
2018-06-21T00:21:51.822Z,99910.44
2018-06-21T00:24:21.702Z,99910.96
2018-06-21T00:26:51.642Z,99912.86
2018-06-21T00:29:21.883Z,99905.22
2018-06-21T00:31:51.755Z,99907.92
2018-06-21T00:34:22.393Z,99904.64
2018-06-21T00:36:52.173Z,99898.44
2018-06-21T00:39:21.882Z,99900.34
2018-06-21T00:41:51.662Z,99899.58
2018-06-21T00:44:21.365Z,99895.23
2018-06-21T00:46:51.071Z,99895.77
2018-06-21T00:49:20.778Z,99892.23
2018-06-21T00:51:50.558Z,99894.13
2018-06-21T00:54:20.698Z,99889.55
2018-06-21T00:56:50.454Z,99885.99
2018-06-21T00:59:20.209Z,99887.89
2018-06-21T01:01:49.882Z,99883.02
2018-06-21T01:04:19.747Z,99882.69
2018-06-21T01:06:49.530Z,99880.79
2018-06-21T01:09:19.681Z,99882.92
2018-06-21T01:11:49.470Z,99878.25
2018-06-21T01:14:19.194Z,99876.09
2018-06-21T01:16:49.024Z,99880.14
2018-06-21T01:19:19.195Z,99875.23
2018-06-21T01:21:48.951Z,99870.63
2018-06-21T01:24:18.642Z,99870.85
2018-06-21T01:26:48.317Z,99871.05
2018-06-21T01:29:18.419Z,99866.44
2018-06-21T01:31:48.198Z,99861.75
2018-06-21T01:34:17.882Z,99860.92
2018-06-21T01:36:47.731Z,99855.45
2018-06-21T01:39:17.238Z,99858.48
2018-06-21T01:41:47.123Z,99851.95
2018-06-21T01:44:17.046Z,99852.44
2018-06-21T01:46:46.862Z,99849.67
2018-06-21T01:49:16.506Z,99850.14
2018-06-21T01:51:46.235Z,99851.44
2018-06-21T01:54:16.256Z,99844.06
2018-06-21T01:56:46.165Z,99845.62
2018-06-21T01:59:16.026Z,99846.44
2018-06-21T02:01:45.802Z,99841.50
2018-06-21T02:04:16.302Z,99838.41
2018-06-21T02:06:46.108Z,99839.42
2018-06-21T02:09:15.837Z,99829.40
2018-06-21T02:11:45.578Z,99828.52
2018-06-21T02:14:15.502Z,99827.98
2018-06-21T02:16:45.422Z,99825.07
2018-06-21T02:19:15.079Z,99824.25
2018-06-21T02:21:44.828Z,99817.44
2018-06-21T02:24:14.506Z,99812.36
2018-06-21T02:26:44.362Z,99811.50
2018-06-21T02:29:14.186Z,99803.30
2018-06-21T02:31:44.106Z,99803.22
2018-06-21T02:34:13.949Z,99802.12
2018-06-21T02:36:44.103Z,99788.79
2018-06-21T02:39:13.864Z,99788.28
2018-06-21T02:41:44.475Z,99792.39
2018-06-21T02:44:14.216Z,99790.76
2018-06-21T02:46:44.006Z,99786.66
2018-06-21T02:49:13.644Z,99784.49
2018-06-21T02:51:43.456Z,99784.28
2018-06-21T02:54:12.895Z,99779.69
2018-06-21T02:56:42.800Z,99778.63
2018-06-21T02:59:13.146Z,99781.33
2018-06-21T03:01:42.926Z,99778.63
2018-06-21T03:04:12.611Z,99778.44
2018-06-21T03:06:42.354Z,99777.78
2018-06-21T03:09:12.037Z,99774.70
2018-06-21T03:11:41.828Z,99771.86
2018-06-21T03:14:11.710Z,99772.56
2018-06-21T03:16:41.642Z,99767.23
2018-06-21T03:19:11.234Z,99770.55
2018-06-21T03:21:41.050Z,99761.11
2018-06-21T03:24:10.822Z,99763.91
2018-06-21T03:26:40.578Z,99757.16
2018-06-21T03:29:10.320Z,99759.64
2018-06-21T03:31:40.118Z,99754.78
2018-06-21T03:34:10.345Z,99747.45
2018-06-21T03:36:40.095Z,99745.31
2018-06-21T03:39:09.870Z,99738.78
2018-06-21T03:41:39.286Z,99741.52
2018-06-21T03:44:08.708Z,99739.09
2018-06-21T03:46:38.520Z,99734.20
2018-06-21T03:49:08.397Z,99735.25
2018-06-21T03:51:38.070Z,99740.13
2018-06-21T03:54:07.818Z,99736.54
2018-06-21T03:56:37.575Z,99730.53
2018-06-21T03:59:07.458Z,99729.95
2018-06-21T04:01:37.254Z,99726.67
2018-06-21T04:04:07.124Z,99730.47
2018-06-21T04:06:36.918Z,99733.45
2018-06-21T04:09:09.466Z,99720.66
2018-06-21T04:11:39.518Z,99719.52
2018-06-21T04:14:08.966Z,99723.27
2018-06-21T04:16:38.774Z,99712.36
2018-06-21T04:19:08.166Z,99713.41
2018-06-21T04:21:38.089Z,99711.72
2018-06-21T04:24:07.804Z,99707.30
2018-06-21T04:26:37.545Z,99706.16
2018-06-21T04:29:07.327Z,99707.45
2018-06-21T04:31:37.694Z,99706.88
2018-06-21T04:34:07.483Z,99707.83
2018-06-21T04:36:37.490Z,99705.82
2018-06-21T04:39:08.422Z,99698.63
2018-06-21T04:41:38.445Z,99700.39
2018-06-21T04:44:08.376Z,99703.87
2018-06-21T04:46:37.892Z,99693.98
2018-06-21T04:49:07.642Z,99691.58
2018-06-21T04:51:37.659Z,99692.92
2018-06-21T04:54:07.550Z,99692.58
2018-06-21T04:56:37.782Z,99695.11
2018-06-21T04:59:07.469Z,99692.98
2018-06-21T05:01:37.862Z,99690.13
2018-06-21T05:04:08.224Z,99684.83
2018-06-21T05:06:38.614Z,99689.09
2018-06-21T05:09:11.311Z,99684.31
2018-06-21T05:11:41.622Z,99684.50
2018-06-21T05:14:12.255Z,99679.28
2018-06-21T05:16:42.796Z,99674.38
2018-06-21T05:19:13.299Z,99674.71
2018-06-21T05:21:43.661Z,99665.48
2018-06-21T05:24:14.125Z,99666.20
2018-06-21T05:26:44.518Z,99663.43
2018-06-21T05:29:14.878Z,99656.42
2018-06-21T05:31:45.270Z,99654.08
2018-06-21T05:34:15.570Z,99646.59
2018-06-21T05:36:45.915Z,99647.22
2018-06-21T05:39:16.732Z,99648.88
2018-06-21T05:41:46.694Z,99646.97
2018-06-21T05:44:16.806Z,99640.00
2018-06-21T05:46:47.062Z,99640.77
2018-06-21T05:49:17.404Z,99638.50
2018-06-21T05:51:48.003Z,99634.73
2018-06-21T05:54:18.326Z,99629.69
2018-06-21T05:56:48.618Z,99627.55
2018-06-21T05:59:18.950Z,99627.69
2018-06-21T06:01:49.258Z,99619.09
2018-06-21T06:04:19.346Z,99618.66
2018-06-21T06:06:49.834Z,99612.23
2018-06-21T06:09:19.851Z,99609.50
2018-06-21T06:11:49.770Z,99612.58
2018-06-21T06:14:19.644Z,99600.75
2018-06-21T06:16:49.815Z,99602.44
2018-06-21T06:19:19.529Z,99591.55
2018-06-21T06:21:50.170Z,99592.11
2018-06-21T06:24:19.927Z,99593.49
2018-06-21T06:26:49.950Z,99595.54
2018-06-21T06:29:19.991Z,99584.89
2018-06-21T06:31:49.998Z,99576.78
2018-06-21T06:34:19.978Z,99581.92
2018-06-21T06:36:49.982Z,99571.46
2018-06-21T06:39:21.030Z,99572.22
2018-06-21T06:41:51.818Z,99563.64
2018-06-21T06:44:21.866Z,99561.39
2018-06-21T06:46:51.870Z,99556.58
2018-06-21T06:49:21.908Z,99564.83
2018-06-21T06:51:51.929Z,99554.92
2018-06-21T06:54:22.266Z,99547.56
2018-06-21T06:56:51.990Z,99543.95
2018-06-21T06:59:21.956Z,99545.33
2018-06-21T07:01:51.929Z,99538.64
2018-06-21T07:04:22.296Z,99536.31
2018-06-21T07:06:52.522Z,99530.23
2018-06-21T07:09:22.546Z,99532.46
2018-06-21T07:11:52.306Z,99523.81
2018-06-21T07:14:22.360Z,99527.79
2018-06-21T07:16:52.602Z,99517.38
2018-06-21T07:19:22.573Z,99507.86
2018-06-21T07:21:52.264Z,99503.97
2018-06-21T07:24:22.213Z,99500.05
2018-06-21T07:26:52.186Z,99503.49
2018-06-21T07:29:22.197Z,99498.25
2018-06-21T07:31:52.163Z,99491.14
2018-06-21T07:34:22.167Z,99487.02
2018-06-21T07:36:52.150Z,99486.11
2018-06-21T07:39:23.670Z,99474.94
2018-06-21T07:41:53.667Z,99472.52
2018-06-21T07:44:23.670Z,99461.67
2018-06-21T07:46:53.662Z,99472.63
2018-06-21T07:49:23.854Z,99461.13
2018-06-21T07:51:53.843Z,99456.48
2018-06-21T07:54:23.870Z,99463.47
2018-06-21T07:56:53.815Z,99455.59
2018-06-21T07:59:23.808Z,99460.06
2018-06-21T08:01:53.786Z,99447.54
2018-06-21T08:04:23.766Z,99445.25
2018-06-21T08:06:53.766Z,99444.81
2018-06-21T08:09:23.746Z,99439.23
2018-06-21T08:11:53.738Z,99432.98
2018-06-21T08:14:23.739Z,99429.09
2018-06-21T08:16:53.426Z,99431.52
2018-06-21T08:19:23.441Z,99421.36
2018-06-21T08:21:53.430Z,99423.14
2018-06-21T08:24:23.435Z,99416.14
2018-06-21T08:26:53.362Z,99414.11
2018-06-21T08:29:23.507Z,99413.37
2018-06-21T08:31:53.790Z,99405.00
2018-06-21T08:34:23.771Z,99405.52
2018-06-21T08:36:53.797Z,99396.94
2018-06-21T08:39:23.786Z,99403.79
2018-06-21T08:41:53.854Z,99393.19
2018-06-21T08:44:23.928Z,99389.73
2018-06-21T08:46:53.918Z,99383.42
2018-06-21T08:49:23.627Z,99379.46
2018-06-21T08:51:53.328Z,99372.74
2018-06-21T08:54:23.546Z,99371.88
2018-06-21T08:56:53.524Z,99365.48
2018-06-21T08:59:23.530Z,99359.59
2018-06-21T09:01:53.503Z,99353.99
2018-06-21T09:04:23.882Z,99353.52
2018-06-21T09:06:53.887Z,99349.42
2018-06-21T09:09:23.842Z,99346.58
2018-06-21T09:11:54.158Z,99347.73
2018-06-21T09:14:24.134Z,99338.09
2018-06-21T09:16:54.140Z,99328.86
2018-06-21T09:19:24.114Z,99329.66
2018-06-21T09:21:54.105Z,99321.25
2018-06-21T09:24:23.906Z,99309.13
2018-06-21T09:26:54.115Z,99315.57
2018-06-21T09:29:24.136Z,99297.48
2018-06-21T09:31:54.418Z,99299.58
2018-06-21T09:34:24.412Z,99296.23
2018-06-21T09:36:54.465Z,99282.33
2018-06-21T09:39:29.503Z,99294.92
2018-06-21T09:42:04.974Z,99274.61
2018-06-21T09:44:36.195Z,99276.83
2018-06-21T09:47:11.710Z,99280.42
2018-06-21T09:49:42.044Z,99278.17
2018-06-21T09:52:12.322Z,99266.10
2018-06-21T09:54:42.420Z,99259.28
2018-06-21T09:57:12.814Z,99258.23
2018-06-21T09:59:43.127Z,99250.19
2018-06-21T10:02:13.554Z,99241.64
2018-06-21T10:04:43.632Z,99237.68
2018-06-21T10:07:13.707Z,99231.37
2018-06-21T10:09:44.102Z,99224.16
2018-06-21T10:12:14.418Z,99224.20
2018-06-21T10:14:44.774Z,99216.67
2018-06-21T10:17:15.449Z,99214.89
2018-06-21T10:19:45.814Z,99210.34
2018-06-21T10:22:15.971Z,99208.34
2018-06-21T10:24:45.978Z,99192.61
2018-06-21T10:27:16.281Z,99186.41
2018-06-21T10:29:46.630Z,99187.30
2018-06-21T10:32:16.934Z,99187.67
2018-06-21T10:34:47.212Z,99179.50
2018-06-21T10:37:17.643Z,99175.53
2018-06-21T10:39:47.973Z,99178.55
2018-06-21T10:42:18.354Z,99167.01
2018-06-21T10:44:48.739Z,99159.03
2018-06-21T10:47:19.060Z,99150.06
2018-06-21T10:49:49.029Z,99154.27
2018-06-21T10:52:19.390Z,99145.11
2018-06-21T10:54:49.688Z,99152.88
2018-06-21T10:57:19.950Z,99147.91
2018-06-21T10:59:50.240Z,99133.97
2018-06-21T11:02:20.487Z,99126.84
2018-06-21T11:04:50.795Z,99129.63
2018-06-21T11:07:21.070Z,99126.19
2018-06-21T11:09:51.366Z,99132.08
2018-06-21T11:12:21.624Z,99128.39
2018-06-21T11:14:52.016Z,99120.34
2018-06-21T11:17:22.392Z,99118.35
2018-06-21T11:19:52.730Z,99115.45
2018-06-21T11:22:23.037Z,99114.39
2018-06-21T11:24:53.376Z,99098.72
2018-06-21T11:27:24.136Z,99085.02
2018-06-21T11:29:54.417Z,99086.23
2018-06-21T11:32:24.923Z,99087.83
2018-06-21T11:34:55.211Z,99082.66
2018-06-21T11:37:25.458Z,99072.94
2018-06-21T11:39:55.856Z,99075.95
2018-06-21T11:42:26.113Z,99065.41
2018-06-21T11:44:56.510Z,99064.44
2018-06-21T11:47:26.835Z,99057.84
2018-06-21T11:49:57.346Z,99067.80
2018-06-21T11:52:27.598Z,99065.98
2018-06-21T11:54:57.861Z,99063.27
2018-06-21T11:57:28.134Z,99059.07
2018-06-21T11:59:58.410Z,99059.07
2018-06-21T12:02:28.810Z,99052.36
2018-06-21T12:04:59.066Z,99046.20
2018-06-21T12:07:29.070Z,99045.63
2018-06-21T12:09:59.037Z,99044.16
2018-06-21T12:12:29.304Z,99042.27
2018-06-21T12:14:59.582Z,99024.42
2018-06-21T12:17:29.910Z,99031.17
2018-06-21T12:20:00.198Z,99011.23
2018-06-21T12:22:30.191Z,99018.59
2018-06-21T12:25:00.534Z,99017.61
2018-06-21T12:27:30.526Z,99010.92
2018-06-21T12:30:00.814Z,99003.23
2018-06-21T12:32:31.066Z,98999.44
2018-06-21T12:35:01.369Z,99014.12
2018-06-21T12:37:31.859Z,99010.91
2018-06-21T12:40:02.132Z,98997.66
2018-06-21T12:42:32.447Z,98993.35
2018-06-21T12:45:02.855Z,98986.86
2018-06-21T12:47:33.210Z,98987.05
2018-06-21T12:50:03.666Z,98986.23
2018-06-21T12:52:33.701Z,98983.09
2018-06-21T12:55:04.155Z,98979.91
2018-06-21T12:57:34.462Z,98978.32
2018-06-21T13:00:04.880Z,98965.25
2018-06-21T13:02:34.962Z,98956.89
2018-06-21T13:05:05.225Z,98961.66
2018-06-21T13:07:35.554Z,98947.75
2018-06-21T13:10:17.075Z,98953.88
2018-06-21T13:13:08.699Z,98956.80
2018-06-21T13:15:39.046Z,98953.01
2018-06-21T13:18:09.319Z,98954.73
2018-06-21T13:20:39.633Z,98947.95
2018-06-21T13:23:09.911Z,98944.52
2018-06-21T13:25:40.296Z,98931.79
2018-06-21T13:28:10.647Z,98924.89
2018-06-21T13:30:40.661Z,98919.50
2018-06-21T13:33:10.938Z,98913.88
2018-06-21T13:35:41.201Z,98902.23
2018-06-21T13:38:11.494Z,98892.95
2018-06-21T13:40:41.761Z,98880.47
2018-06-21T13:43:12.159Z,98879.52
2018-06-21T13:45:42.522Z,98876.70
2018-06-21T13:48:12.534Z,98857.22
2018-06-21T13:50:42.790Z,98852.19
2018-06-21T13:53:13.928Z,98852.77
2018-06-21T13:55:44.262Z,98849.63
2018-06-21T13:58:14.538Z,98852.80
2018-06-21T14:00:44.850Z,98858.39
2018-06-21T14:03:15.139Z,98862.41
2018-06-21T14:05:45.405Z,98855.95
2018-06-21T14:08:15.823Z,98871.23
2018-06-21T14:10:46.236Z,98958.32
2018-06-21T14:13:16.540Z,98983.77
2018-06-21T14:15:46.559Z,98971.77
2018-06-21T14:18:17.289Z,98986.27
2018-06-21T14:20:48.236Z,99036.15
2018-06-21T14:23:18.515Z,99061.09
2018-06-21T14:25:48.541Z,99094.77
2018-06-21T14:28:18.790Z,99097.95
2018-06-21T14:30:49.134Z,99104.81
2018-06-21T14:33:19.490Z,99090.33
2018-06-21T14:35:49.995Z,99084.33
2018-06-21T14:38:20.460Z,99074.38
2018-06-21T14:40:50.777Z,99047.53
2018-06-21T14:43:21.118Z,99034.98
2018-06-21T14:45:51.371Z,99022.97
2018-06-21T14:48:21.692Z,98972.39
2018-06-21T14:50:52.184Z,98948.86
2018-06-21T14:53:22.179Z,98951.64
2018-06-21T14:55:52.495Z,98939.08
2018-06-21T14:58:22.226Z,98947.48
2018-06-21T15:00:52.135Z,98953.65
2018-06-21T15:03:21.878Z,98964.27
2018-06-21T15:05:51.558Z,98960.16
2018-06-21T15:08:21.912Z,98949.23
2018-06-21T15:10:52.175Z,98949.30
2018-06-21T15:13:21.592Z,98950.30
2018-06-21T15:15:51.375Z,98965.08
2018-06-21T15:18:21.067Z,98977.58
2018-06-21T15:20:51.371Z,98983.06
2018-06-21T15:23:21.054Z,99004.23
2018-06-21T15:25:51.350Z,99063.55
2018-06-21T15:28:21.623Z,99101.86
2018-06-21T15:30:51.379Z,99130.06
2018-06-21T15:33:21.101Z,99162.05
2018-06-21T15:35:50.511Z,99189.19
2018-06-21T15:38:20.493Z,99197.28
2018-06-21T15:40:50.554Z,99223.15
2018-06-21T15:43:20.250Z,99250.48
2018-06-21T15:45:49.962Z,99281.38
2018-06-21T15:48:19.936Z,99298.72
2018-06-21T15:50:49.659Z,99295.59
2018-06-21T15:53:19.431Z,99298.25
2018-06-21T15:55:49.122Z,99304.11
2018-06-21T15:58:19.370Z,99316.73
2018-06-21T16:00:49.414Z,99315.59
2018-06-21T16:03:19.113Z,99314.88
2018-06-21T16:05:48.830Z,99313.84
2018-06-21T16:08:18.509Z,99335.69
2018-06-21T16:10:48.208Z,99339.48
2018-06-21T16:13:18.453Z,99348.73
2018-06-21T16:15:48.790Z,99351.66
2018-06-21T16:18:18.646Z,99362.33
2018-06-21T16:20:48.346Z,99376.42
2018-06-21T16:23:18.018Z,99371.62
2018-06-21T16:25:47.701Z,99370.50
2018-06-21T16:28:17.420Z,99374.44
2018-06-21T16:30:47.326Z,99378.69
2018-06-21T16:33:17.017Z,99395.02
2018-06-21T16:35:46.694Z,99401.53
2018-06-21T16:38:16.354Z,99404.04
2018-06-21T16:40:46.085Z,99404.14
2018-06-21T16:43:15.504Z,99418.48
2018-06-21T16:45:45.213Z,99443.67
2018-06-21T16:48:14.879Z,99451.19
2018-06-21T16:50:44.547Z,99445.84
2018-06-21T16:53:14.292Z,99445.66
2018-06-21T16:55:44.347Z,99461.78
2018-06-21T16:58:14.053Z,99473.80
2018-06-21T17:00:44.156Z,99484.41
2018-06-21T17:03:13.847Z,99473.76
2018-06-21T17:05:43.602Z,99487.12
2018-06-21T17:08:13.294Z,99495.05
2018-06-21T17:10:42.697Z,99504.59
2018-06-21T17:13:12.391Z,99512.03
2018-06-21T17:15:42.059Z,99495.50
2018-06-21T17:18:11.813Z,99496.08
2018-06-21T17:20:41.502Z,99495.02
2018-06-21T17:23:11.210Z,99502.12
2018-06-21T17:25:40.898Z,99496.45
2018-06-21T17:28:10.569Z,99512.75
2018-06-21T17:30:40.442Z,99511.70
2018-06-21T17:33:10.115Z,99516.63
2018-06-21T17:35:39.848Z,99516.70
2018-06-21T17:38:09.534Z,99523.02
2018-06-21T17:40:38.932Z,99523.88
2018-06-21T17:43:08.646Z,99538.61
2018-06-21T17:45:38.407Z,99538.92
2018-06-21T17:48:08.242Z,99538.39
2018-06-21T17:50:37.950Z,99551.14
2018-06-21T17:53:07.643Z,99543.30
2018-06-21T17:55:37.354Z,99543.03
2018-06-21T17:58:07.094Z,99539.80
2018-06-21T18:00:36.987Z,99542.48
2018-06-21T18:03:06.666Z,99553.37
2018-06-21T18:05:36.342Z,99556.92
2018-06-21T18:08:06.094Z,99567.25
2018-06-21T18:10:35.808Z,99568.09
2018-06-21T18:13:05.530Z,99582.44
2018-06-21T18:15:35.223Z,99590.30
2018-06-21T18:18:04.922Z,99594.36
2018-06-21T18:20:34.631Z,99589.22
2018-06-21T18:23:04.318Z,99595.98
2018-06-21T18:25:34.082Z,99597.02
2018-06-21T18:28:03.816Z,99604.05
2018-06-21T18:30:33.487Z,99606.47
2018-06-21T18:33:03.219Z,99604.31
2018-06-21T18:35:33.130Z,99604.83
2018-06-21T18:38:02.693Z,99609.14
2018-06-21T18:40:32.412Z,99608.58
2018-06-21T18:43:02.162Z,99610.72
2018-06-21T18:45:31.919Z,99612.87
2018-06-21T18:48:01.649Z,99627.45
2018-06-21T18:50:31.362Z,99614.67
2018-06-21T18:53:01.114Z,99621.16
2018-06-21T18:55:30.818Z,99630.31
2018-06-21T18:58:00.539Z,99630.24
2018-06-21T19:00:30.232Z,99635.11
2018-06-21T19:02:59.928Z,99630.24
2018-06-21T19:05:29.606Z,99633.75
2018-06-21T19:08:04.608Z,99636.41
2018-06-21T19:10:39.366Z,99638.25
2018-06-21T19:13:08.978Z,99652.83
2018-06-21T19:15:38.881Z,99646.83
2018-06-21T19:18:08.559Z,99647.59
2018-06-21T19:20:38.478Z,99647.31
2018-06-21T19:23:08.434Z,99642.66
2018-06-21T19:25:38.208Z,99643.19
2018-06-21T19:28:08.107Z,99647.17
2018-06-21T19:30:38.266Z,99670.05
2018-06-21T19:33:08.342Z,99673.22
2018-06-21T19:35:38.054Z,99673.09
2018-06-21T19:38:07.815Z,99677.02
2018-06-21T19:40:37.598Z,99688.31
2018-06-21T19:43:07.319Z,99707.56
2018-06-21T19:45:37.249Z,99716.12
2018-06-21T19:48:06.929Z,99714.20
2018-06-21T19:50:36.657Z,99705.29
2018-06-21T19:53:06.342Z,99699.28
2018-06-21T19:55:35.739Z,99702.94
2018-06-21T19:58:05.221Z,99707.23
2018-06-21T20:00:34.920Z,99713.59
2018-06-21T20:03:04.376Z,99708.02
2018-06-21T20:05:34.051Z,99714.32
2018-06-21T20:08:03.758Z,99716.78
2018-06-21T20:10:33.207Z,99716.61
2018-06-21T20:13:02.874Z,99718.83
2018-06-21T20:15:43.983Z,99711.32
2018-06-21T20:18:13.392Z,99707.72
2018-06-21T20:20:42.802Z,99714.14
2018-06-21T20:23:12.490Z,99715.83
2018-06-21T20:25:42.166Z,99723.74
2018-06-21T20:28:11.761Z,99725.98
2018-06-21T20:30:41.646Z,99723.79
2018-06-21T20:33:11.318Z,99727.58
2018-06-21T20:35:41.082Z,99728.03
2018-06-21T20:38:10.777Z,99734.45
2018-06-21T20:40:40.750Z,99739.32
2018-06-21T20:43:10.150Z,99738.96
2018-06-21T20:45:39.818Z,99747.46
2018-06-21T20:48:09.536Z,99747.19
2018-06-21T20:50:39.366Z,99740.34
2018-06-21T20:53:08.806Z,99743.38
2018-06-21T20:55:38.530Z,99737.71
2018-06-21T20:58:08.015Z,99733.22
2018-06-21T21:00:37.695Z,99740.59
2018-06-21T21:03:07.083Z,99740.98
2018-06-21T21:05:37.162Z,99742.66
2018-06-21T21:08:06.851Z,99741.22
2018-06-21T21:10:36.551Z,99743.08
2018-06-21T21:13:07.008Z,99744.91
2018-06-21T21:15:37.549Z,99746.73
2018-06-21T21:18:08.396Z,99742.87
2018-06-21T21:20:38.122Z,99742.62
2018-06-21T21:23:07.580Z,99750.11
2018-06-21T21:25:37.193Z,99750.19
2018-06-21T21:28:06.610Z,99744.06
2018-06-21T21:30:36.295Z,99745.34
2018-06-21T21:33:06.061Z,99749.84
2018-06-21T21:35:35.726Z,99755.52
2018-06-21T21:38:05.486Z,99745.10
2018-06-21T21:40:35.175Z,99747.55
2018-06-21T21:43:04.878Z,99749.78
2018-06-21T21:45:34.613Z,99750.99
2018-06-21T21:48:04.311Z,99750.47
2018-06-21T21:50:33.968Z,99752.98
2018-06-21T21:53:03.394Z,99750.69
2018-06-21T21:55:32.788Z,99749.86
2018-06-21T21:58:02.494Z,99741.64
2018-06-21T22:00:49.075Z,99743.45
2018-06-21T22:03:18.519Z,99748.02
2018-06-21T22:05:48.216Z,99754.84
2018-06-21T22:08:17.726Z,99762.53
2018-06-21T22:10:48.136Z,99767.37
2018-06-21T22:13:17.915Z,99769.98
2018-06-21T22:15:47.580Z,99771.97
2018-06-21T22:18:16.991Z,99772.72
2018-06-21T22:20:46.396Z,99780.97
2018-06-21T22:23:16.070Z,99782.60
2018-06-21T22:25:45.772Z,99776.75
2018-06-21T22:28:15.493Z,99781.49
2018-06-21T22:30:45.203Z,99786.36
2018-06-21T22:33:14.614Z,99792.55
2018-06-21T22:35:44.303Z,99798.37
2018-06-21T22:38:13.687Z,99798.34
2018-06-21T22:40:43.138Z,99800.53
2018-06-21T22:43:12.856Z,99802.63
2018-06-21T22:45:42.308Z,99806.36
2018-06-21T22:48:11.710Z,99812.97
2018-06-21T22:50:41.407Z,99801.13
2018-06-21T22:53:11.415Z,99803.75
2018-06-21T22:55:41.166Z,99808.66
2018-06-21T22:58:11.011Z,99808.08
2018-06-21T23:00:40.910Z,99815.38
2018-06-21T23:03:10.318Z,99815.95
2018-06-21T23:05:39.758Z,99820.88
2018-06-21T23:08:09.156Z,99821.58
2018-06-21T23:10:38.560Z,99827.23
2018-06-21T23:13:08.401Z,99836.84
2018-06-21T23:15:37.830Z,99836.13
2018-06-21T23:18:07.534Z,99835.60
2018-06-21T23:20:36.946Z,99845.22
2018-06-21T23:23:06.642Z,99846.10
2018-06-21T23:25:36.318Z,99852.28
2018-06-21T23:28:06.003Z,99847.53
2018-06-21T23:30:35.718Z,99855.83
2018-06-21T23:33:05.456Z,99855.53
2018-06-21T23:35:35.146Z,99855.38
2018-06-21T23:38:04.802Z,99864.92
2018-06-21T23:40:34.496Z,99864.33
2018-06-21T23:43:04.197Z,99863.52
2018-06-21T23:45:34.030Z,99865.14
2018-06-21T23:48:03.718Z,99870.28
2018-06-21T23:50:33.114Z,99874.05
2018-06-21T23:53:02.774Z,99874.64
2018-06-21T23:55:32.486Z,99878.02
2018-06-21T23:58:02.163Z,99876.62
